sensor_id;sensor_type;location;lat;lon;timestamp;temperature;humidity
8539;DHT22;4307;53.868;11.680;2023-05-07T00:00:52;9.50;99.90
8539;DHT22;4307;53.868;11.680;2023-05-07T00:03:19;9.50;99.90
8539;DHT22;4307;53.868;11.680;2023-05-07T00:05:45;9.50;99.90
8539;DHT22;4307;53.868;11.680;2023-05-07T00:08:13;9.50;99.90
8539;DHT22;4307;53.868;11.680;2023-05-07T00:10:40;9.60;99.90
8539;DHT22;4307;53.868;11.680;2023-05-07T00:13:07;9.60;99.90
8539;DHT22;4307;53.868;11.680;2023-05-07T00:15:34;9.60;99.90
8539;DHT22;4307;53.868;11.680;2023-05-07T00:18:02;9.50;99.90
8539;DHT22;4307;53.868;11.680;2023-05-07T00:20:28;9.50;99.90
8539;DHT22;4307;53.868;11.680;2023-05-07T00:22:55;9.50;99.90
8539;DHT22;4307;53.868;11.680;2023-05-07T00:25:22;9.50;99.90
8539;DHT22;4307;53.868;11.680;2023-05-07T00:27:48;9.50;99.90
8539;DHT22;4307;53.868;11.680;2023-05-07T00:30:15;9.50;99.90
8539;DHT22;4307;53.868;11.680;2023-05-07T00:32:42;9.50;99.90
8539;DHT22;4307;53.868;11.680;2023-05-07T00:35:12;9.50;99.90
8539;DHT22;4307;53.868;11.680;2023-05-07T00:37:38;9.50;99.90
8539;DHT22;4307;53.868;11.680;2023-05-07T00:40:06;9.50;99.90
8539;DHT22;4307;53.868;11.680;2023-05-07T00:42:33;9.60;99.90
8539;DHT22;4307;53.868;11.680;2023-05-07T00:45:00;9.60;99.90
8539;DHT22;4307;53.868;11.680;2023-05-07T00:47:26;9.60;99.90
8539;DHT22;4307;53.868;11.680;2023-05-07T00:49:53;9.50;99.90
8539;DHT22;4307;53.868;11.680;2023-05-07T00:52:24;9.60;99.90
8539;DHT22;4307;53.868;11.680;2023-05-07T00:54:52;9.60;99.90
8539;DHT22;4307;53.868;11.680;2023-05-07T00:57:19;9.50;99.90
8539;DHT22;4307;53.868;11.680;2023-05-07T00:59:47;9.60;99.90
8539;DHT22;4307;53.868;11.680;2023-05-07T01:02:13;9.60;99.90
8539;DHT22;4307;53.868;11.680;2023-05-07T01:04:40;9.60;99.90
8539;DHT22;4307;53.868;11.680;2023-05-07T01:07:07;9.60;99.90
8539;DHT22;4307;53.868;11.680;2023-05-07T01:09:36;9.60;99.90
8539;DHT22;4307;53.868;11.680;2023-05-07T01:12:04;9.60;99.90
8539;DHT22;4307;53.868;11.680;2023-05-07T01:14:31;9.60;99.90
8539;DHT22;4307;53.868;11.680;2023-05-07T01:16:58;9.60;99.90
8539;DHT22;4307;53.868;11.680;2023-05-07T01:19:25;9.60;99.90
8539;DHT22;4307;53.868;11.680;2023-05-07T01:21:58;9.60;99.90
8539;DHT22;4307;53.868;11.680;2023-05-07T01:24:29;9.60;99.90
8539;DHT22;4307;53.868;11.680;2023-05-07T01:26:56;9.50;99.90
8539;DHT22;4307;53.868;11.680;2023-05-07T01:29:23;9.50;99.90
8539;DHT22;4307;53.868;11.680;2023-05-07T01:31:50;9.60;99.90
8539;DHT22;4307;53.868;11.680;2023-05-07T01:34:18;9.60;99.90
8539;DHT22;4307;53.868;11.680;2023-05-07T01:36:46;9.60;99.90
8539;DHT22;4307;53.868;11.680;2023-05-07T01:39:15;9.60;99.90
8539;DHT22;4307;53.868;11.680;2023-05-07T01:41:44;9.60;99.90
8539;DHT22;4307;53.868;11.680;2023-05-07T01:44:12;9.60;99.90
8539;DHT22;4307;53.868;11.680;2023-05-07T01:46:40;9.60;99.90
8539;DHT22;4307;53.868;11.680;2023-05-07T01:49:07;9.60;99.90
8539;DHT22;4307;53.868;11.680;2023-05-07T01:51:34;9.50;99.90
8539;DHT22;4307;53.868;11.680;2023-05-07T01:54:00;9.50;99.90
8539;DHT22;4307;53.868;11.680;2023-05-07T01:56:27;9.50;99.90
8539;DHT22;4307;53.868;11.680;2023-05-07T01:58:55;9.50;99.90
8539;DHT22;4307;53.868;11.680;2023-05-07T02:01:22;9.50;99.90
8539;DHT22;4307;53.868;11.680;2023-05-07T02:03:49;9.50;99.90
8539;DHT22;4307;53.868;11.680;2023-05-07T02:06:15;9.50;99.90
8539;DHT22;4307;53.868;11.680;2023-05-07T02:08:42;9.50;99.90
8539;DHT22;4307;53.868;11.680;2023-05-07T02:11:09;9.50;99.90
8539;DHT22;4307;53.868;11.680;2023-05-07T02:13:36;9.50;99.90
8539;DHT22;4307;53.868;11.680;2023-05-07T02:16:04;9.40;99.90
8539;DHT22;4307;53.868;11.680;2023-05-07T02:18:32;9.50;99.90
8539;DHT22;4307;53.868;11.680;2023-05-07T02:20:58;9.40;99.90
8539;DHT22;4307;53.868;11.680;2023-05-07T02:23:25;9.40;99.90
8539;DHT22;4307;53.868;11.680;2023-05-07T02:25:52;9.40;99.90
8539;DHT22;4307;53.868;11.680;2023-05-07T02:28:18;9.40;99.90
8539;DHT22;4307;53.868;11.680;2023-05-07T02:30:45;9.40;99.90
8539;DHT22;4307;53.868;11.680;2023-05-07T02:33:13;9.50;99.90
8539;DHT22;4307;53.868;11.680;2023-05-07T02:35:40;9.40;99.90
8539;DHT22;4307;53.868;11.680;2023-05-07T02:38:07;9.40;99.90
8539;DHT22;4307;53.868;11.680;2023-05-07T02:40:36;9.40;99.90
8539;DHT22;4307;53.868;11.680;2023-05-07T02:43:04;9.40;99.90
8539;DHT22;4307;53.868;11.680;2023-05-07T02:45:30;9.40;99.90
8539;DHT22;4307;53.868;11.680;2023-05-07T02:47:57;9.40;99.90
8539;DHT22;4307;53.868;11.680;2023-05-07T02:50:25;9.40;99.90
8539;DHT22;4307;53.868;11.680;2023-05-07T02:52:52;9.40;99.90
8539;DHT22;4307;53.868;11.680;2023-05-07T02:55:19;9.40;99.90
8539;DHT22;4307;53.868;11.680;2023-05-07T02:57:45;9.40;99.90
8539;DHT22;4307;53.868;11.680;2023-05-07T03:00:13;9.50;99.90
8539;DHT22;4307;53.868;11.680;2023-05-07T03:02:40;9.50;99.90
8539;DHT22;4307;53.868;11.680;2023-05-07T03:05:07;9.40;99.90
8539;DHT22;4307;53.868;11.680;2023-05-07T03:07:35;9.50;99.90
8539;DHT22;4307;53.868;11.680;2023-05-07T03:10:02;9.50;99.90
8539;DHT22;4307;53.868;11.680;2023-05-07T03:12:29;9.40;99.90
8539;DHT22;4307;53.868;11.680;2023-05-07T03:14:56;9.40;99.90
8539;DHT22;4307;53.868;11.680;2023-05-07T03:17:23;9.50;99.90
8539;DHT22;4307;53.868;11.680;2023-05-07T03:19:50;9.50;99.90
8539;DHT22;4307;53.868;11.680;2023-05-07T03:22:16;9.40;99.90
8539;DHT22;4307;53.868;11.680;2023-05-07T03:24:44;9.40;99.90
8539;DHT22;4307;53.868;11.680;2023-05-07T03:27:11;9.40;99.90
8539;DHT22;4307;53.868;11.680;2023-05-07T03:29:38;9.40;99.90
8539;DHT22;4307;53.868;11.680;2023-05-07T03:32:04;9.40;99.90
8539;DHT22;4307;53.868;11.680;2023-05-07T03:34:32;9.30;99.90
8539;DHT22;4307;53.868;11.680;2023-05-07T03:36:58;9.40;99.90
8539;DHT22;4307;53.868;11.680;2023-05-07T03:39:25;9.30;99.90
8539;DHT22;4307;53.868;11.680;2023-05-07T03:41:53;9.30;99.90
8539;DHT22;4307;53.868;11.680;2023-05-07T03:44:20;9.30;99.90
8539;DHT22;4307;53.868;11.680;2023-05-07T03:46:47;9.30;99.90
8539;DHT22;4307;53.868;11.680;2023-05-07T03:49:13;9.30;99.90
8539;DHT22;4307;53.868;11.680;2023-05-07T03:51:40;9.30;99.90
8539;DHT22;4307;53.868;11.680;2023-05-07T03:54:07;9.30;99.90
8539;DHT22;4307;53.868;11.680;2023-05-07T03:56:34;9.30;99.90
8539;DHT22;4307;53.868;11.680;2023-05-07T03:59:02;9.30;99.90
8539;DHT22;4307;53.868;11.680;2023-05-07T04:01:28;9.30;99.90
8539;DHT22;4307;53.868;11.680;2023-05-07T04:03:55;9.30;99.90
8539;DHT22;4307;53.868;11.680;2023-05-07T04:06:22;9.40;99.90
8539;DHT22;4307;53.868;11.680;2023-05-07T04:08:49;9.40;99.90
8539;DHT22;4307;53.868;11.680;2023-05-07T04:11:16;9.40;99.90
8539;DHT22;4307;53.868;11.680;2023-05-07T04:13:42;9.30;99.90
8539;DHT22;4307;53.868;11.680;2023-05-07T04:16:11;9.30;99.90
8539;DHT22;4307;53.868;11.680;2023-05-07T04:18:37;9.30;99.90
8539;DHT22;4307;53.868;11.680;2023-05-07T04:21:04;9.30;99.90
8539;DHT22;4307;53.868;11.680;2023-05-07T04:23:31;9.30;99.90
8539;DHT22;4307;53.868;11.680;2023-05-07T04:25:58;9.40;99.90
8539;DHT22;4307;53.868;11.680;2023-05-07T04:28:24;9.30;99.90
8539;DHT22;4307;53.868;11.680;2023-05-07T04:30:51;9.30;99.90
8539;DHT22;4307;53.868;11.680;2023-05-07T04:33:19;9.30;99.90
8539;DHT22;4307;53.868;11.680;2023-05-07T04:35:46;9.30;99.90
8539;DHT22;4307;53.868;11.680;2023-05-07T04:38:12;9.40;99.90
8539;DHT22;4307;53.868;11.680;2023-05-07T04:40:39;9.40;99.90
8539;DHT22;4307;53.868;11.680;2023-05-07T04:43:06;9.40;99.90
8539;DHT22;4307;53.868;11.680;2023-05-07T04:45:34;9.40;99.90
8539;DHT22;4307;53.868;11.680;2023-05-07T04:48:01;9.40;99.90
8539;DHT22;4307;53.868;11.680;2023-05-07T04:50:29;9.40;99.90
8539;DHT22;4307;53.868;11.680;2023-05-07T04:52:56;9.40;99.90
8539;DHT22;4307;53.868;11.680;2023-05-07T04:55:23;9.40;99.90
8539;DHT22;4307;53.868;11.680;2023-05-07T04:57:49;9.40;99.90
8539;DHT22;4307;53.868;11.680;2023-05-07T05:00:16;9.40;99.90
8539;DHT22;4307;53.868;11.680;2023-05-07T05:02:44;9.40;99.90
8539;DHT22;4307;53.868;11.680;2023-05-07T05:05:11;9.40;99.90
8539;DHT22;4307;53.868;11.680;2023-05-07T05:07:39;9.40;99.90
8539;DHT22;4307;53.868;11.680;2023-05-07T05:10:06;9.50;99.90
8539;DHT22;4307;53.868;11.680;2023-05-07T05:12:33;9.50;99.90
8539;DHT22;4307;53.868;11.680;2023-05-07T05:14:59;9.50;99.90
8539;DHT22;4307;53.868;11.680;2023-05-07T05:17:26;9.50;99.90
8539;DHT22;4307;53.868;11.680;2023-05-07T05:19:53;9.50;99.90
8539;DHT22;4307;53.868;11.680;2023-05-07T05:22:19;9.50;99.90
8539;DHT22;4307;53.868;11.680;2023-05-07T05:24:47;9.50;99.90
8539;DHT22;4307;53.868;11.680;2023-05-07T05:27:14;9.50;99.90
8539;DHT22;4307;53.868;11.680;2023-05-07T05:29:41;9.60;99.90
8539;DHT22;4307;53.868;11.680;2023-05-07T05:32:07;9.60;99.90
8539;DHT22;4307;53.868;11.680;2023-05-07T05:34:34;9.60;99.90
8539;DHT22;4307;53.868;11.680;2023-05-07T05:37:01;9.60;99.90
8539;DHT22;4307;53.868;11.680;2023-05-07T05:39:27;9.70;99.90
8539;DHT22;4307;53.868;11.680;2023-05-07T05:41:56;9.80;99.90
8539;DHT22;4307;53.868;11.680;2023-05-07T05:44:22;9.90;99.90
8539;DHT22;4307;53.868;11.680;2023-05-07T05:46:49;9.90;99.90
8539;DHT22;4307;53.868;11.680;2023-05-07T05:49:16;10.10;99.90
8539;DHT22;4307;53.868;11.680;2023-05-07T05:51:43;10.30;99.90
8539;DHT22;4307;53.868;11.680;2023-05-07T05:54:09;10.40;99.90
8539;DHT22;4307;53.868;11.680;2023-05-07T05:56:36;10.40;99.90
8539;DHT22;4307;53.868;11.680;2023-05-07T05:59:05;10.40;99.90
8539;DHT22;4307;53.868;11.680;2023-05-07T06:01:32;10.40;99.90
8539;DHT22;4307;53.868;11.680;2023-05-07T06:03:58;10.30;99.90
8539;DHT22;4307;53.868;11.680;2023-05-07T06:06:25;10.40;99.90
8539;DHT22;4307;53.868;11.680;2023-05-07T06:08:52;10.40;99.90
8539;DHT22;4307;53.868;11.680;2023-05-07T06:11:19;10.50;99.90
8539;DHT22;4307;53.868;11.680;2023-05-07T06:13:46;10.80;99.90
8539;DHT22;4307;53.868;11.680;2023-05-07T06:16:14;11.20;99.90
8539;DHT22;4307;53.868;11.680;2023-05-07T06:18:41;11.70;99.90
8539;DHT22;4307;53.868;11.680;2023-05-07T06:21:09;11.90;99.90
8539;DHT22;4307;53.868;11.680;2023-05-07T06:23:36;12.10;99.90
8539;DHT22;4307;53.868;11.680;2023-05-07T06:26:02;12.20;99.90
8539;DHT22;4307;53.868;11.680;2023-05-07T06:28:29;12.30;99.90
8539;DHT22;4307;53.868;11.680;2023-05-07T06:31:11;12.30;99.90
8539;DHT22;4307;53.868;11.680;2023-05-07T06:33:39;12.30;99.90
8539;DHT22;4307;53.868;11.680;2023-05-07T06:36:06;12.40;99.90
8539;DHT22;4307;53.868;11.680;2023-05-07T06:38:33;12.60;99.90
8539;DHT22;4307;53.868;11.680;2023-05-07T06:41:00;12.80;99.90
8539;DHT22;4307;53.868;11.680;2023-05-07T06:43:26;12.80;99.90
8539;DHT22;4307;53.868;11.680;2023-05-07T06:45:53;13.00;99.90
8539;DHT22;4307;53.868;11.680;2023-05-07T06:48:20;13.20;99.90
8539;DHT22;4307;53.868;11.680;2023-05-07T06:50:48;13.00;99.90
8539;DHT22;4307;53.868;11.680;2023-05-07T06:53:14;12.80;99.90
8539;DHT22;4307;53.868;11.680;2023-05-07T06:55:41;12.60;99.90
8539;DHT22;4307;53.868;11.680;2023-05-07T06:58:08;12.60;99.90
8539;DHT22;4307;53.868;11.680;2023-05-07T07:00:34;12.50;99.90
8539;DHT22;4307;53.868;11.680;2023-05-07T07:03:01;12.60;99.90
8539;DHT22;4307;53.868;11.680;2023-05-07T07:05:28;12.80;99.90
8539;DHT22;4307;53.868;11.680;2023-05-07T07:07:56;13.30;99.90
8539;DHT22;4307;53.868;11.680;2023-05-07T07:10:22;13.90;99.90
8539;DHT22;4307;53.868;11.680;2023-05-07T07:12:50;14.10;99.90
8539;DHT22;4307;53.868;11.680;2023-05-07T07:15:18;14.20;99.90
8539;DHT22;4307;53.868;11.680;2023-05-07T07:17:45;14.40;99.90
8539;DHT22;4307;53.868;11.680;2023-05-07T07:20:12;14.60;99.90
8539;DHT22;4307;53.868;11.680;2023-05-07T07:22:39;14.60;99.90
8539;DHT22;4307;53.868;11.680;2023-05-07T07:25:08;14.50;99.90
8539;DHT22;4307;53.868;11.680;2023-05-07T07:27:36;14.40;99.90
8539;DHT22;4307;53.868;11.680;2023-05-07T07:30:04;14.30;99.90
8539;DHT22;4307;53.868;11.680;2023-05-07T07:32:31;14.50;99.90
8539;DHT22;4307;53.868;11.680;2023-05-07T07:34:58;14.80;99.90
8539;DHT22;4307;53.868;11.680;2023-05-07T07:37:25;15.00;99.90
8539;DHT22;4307;53.868;11.680;2023-05-07T07:39:52;15.00;99.90
8539;DHT22;4307;53.868;11.680;2023-05-07T07:42:20;14.80;99.90
8539;DHT22;4307;53.868;11.680;2023-05-07T07:44:47;14.50;99.90
8539;DHT22;4307;53.868;11.680;2023-05-07T07:47:14;14.60;99.90
8539;DHT22;4307;53.868;11.680;2023-05-07T07:49:41;14.60;99.90
8539;DHT22;4307;53.868;11.680;2023-05-07T07:52:07;14.70;99.90
8539;DHT22;4307;53.868;11.680;2023-05-07T07:54:34;15.00;99.90
8539;DHT22;4307;53.868;11.680;2023-05-07T07:57:01;15.30;99.90
8539;DHT22;4307;53.868;11.680;2023-05-07T07:59:29;15.60;99.90
8539;DHT22;4307;53.868;11.680;2023-05-07T08:01:55;15.90;99.90
8539;DHT22;4307;53.868;11.680;2023-05-07T08:04:22;16.20;99.90
8539;DHT22;4307;53.868;11.680;2023-05-07T08:06:49;16.10;99.90
8539;DHT22;4307;53.868;11.680;2023-05-07T08:09:16;15.90;99.90
8539;DHT22;4307;53.868;11.680;2023-05-07T08:11:42;15.80;99.90
8539;DHT22;4307;53.868;11.680;2023-05-07T08:14:09;15.80;99.90
8539;DHT22;4307;53.868;11.680;2023-05-07T08:16:37;15.70;99.90
8539;DHT22;4307;53.868;11.680;2023-05-07T08:19:04;15.70;99.90
8539;DHT22;4307;53.868;11.680;2023-05-07T08:21:31;15.80;99.90
8539;DHT22;4307;53.868;11.680;2023-05-07T08:23:58;15.80;99.90
8539;DHT22;4307;53.868;11.680;2023-05-07T08:26:24;15.90;99.90
8539;DHT22;4307;53.868;11.680;2023-05-07T08:28:51;16.20;99.90
8539;DHT22;4307;53.868;11.680;2023-05-07T08:31:17;16.20;99.90
8539;DHT22;4307;53.868;11.680;2023-05-07T08:33:45;16.30;99.90
8539;DHT22;4307;53.868;11.680;2023-05-07T08:36:12;16.50;99.90
8539;DHT22;4307;53.868;11.680;2023-05-07T08:38:39;16.70;99.90
8539;DHT22;4307;53.868;11.680;2023-05-07T08:41:09;16.90;99.90
8539;DHT22;4307;53.868;11.680;2023-05-07T08:43:37;17.00;99.90
8539;DHT22;4307;53.868;11.680;2023-05-07T08:46:05;16.80;99.90
8539;DHT22;4307;53.868;11.680;2023-05-07T08:48:32;16.70;99.90
8539;DHT22;4307;53.868;11.680;2023-05-07T08:51:01;16.80;99.90
8539;DHT22;4307;53.868;11.680;2023-05-07T08:53:27;17.10;99.90
8539;DHT22;4307;53.868;11.680;2023-05-07T08:55:55;17.10;99.90
8539;DHT22;4307;53.868;11.680;2023-05-07T08:58:21;17.10;99.90
8539;DHT22;4307;53.868;11.680;2023-05-07T09:00:48;17.30;99.90
8539;DHT22;4307;53.868;11.680;2023-05-07T09:03:15;17.50;99.90
8539;DHT22;4307;53.868;11.680;2023-05-07T09:05:42;17.70;99.90
8539;DHT22;4307;53.868;11.680;2023-05-07T09:08:14;17.60;99.90
8539;DHT22;4307;53.868;11.680;2023-05-07T09:10:40;17.50;99.90
8539;DHT22;4307;53.868;11.680;2023-05-07T09:13:07;17.40;99.90
8539;DHT22;4307;53.868;11.680;2023-05-07T09:15:34;17.40;99.90
8539;DHT22;4307;53.868;11.680;2023-05-07T09:18:01;17.50;99.90
8539;DHT22;4307;53.868;11.680;2023-05-07T09:20:30;17.50;99.90
8539;DHT22;4307;53.868;11.680;2023-05-07T09:22:57;17.50;99.90
8539;DHT22;4307;53.868;11.680;2023-05-07T09:25:30;17.30;99.90
8539;DHT22;4307;53.868;11.680;2023-05-07T09:27:57;17.20;99.90
8539;DHT22;4307;53.868;11.680;2023-05-07T09:30:27;17.30;99.90
8539;DHT22;4307;53.868;11.680;2023-05-07T09:32:54;17.40;99.90
8539;DHT22;4307;53.868;11.680;2023-05-07T09:35:21;17.50;99.90
8539;DHT22;4307;53.868;11.680;2023-05-07T09:37:49;17.70;99.90
8539;DHT22;4307;53.868;11.680;2023-05-07T09:40:23;17.90;99.90
8539;DHT22;4307;53.868;11.680;2023-05-07T09:42:52;18.00;99.90
8539;DHT22;4307;53.868;11.680;2023-05-07T09:45:22;18.00;99.90
8539;DHT22;4307;53.868;11.680;2023-05-07T09:47:49;18.20;99.90
8539;DHT22;4307;53.868;11.680;2023-05-07T09:50:22;18.30;99.30
8539;DHT22;4307;53.868;11.680;2023-05-07T09:52:52;18.30;98.80
8539;DHT22;4307;53.868;11.680;2023-05-07T09:55:19;18.00;99.00
8539;DHT22;4307;53.868;11.680;2023-05-07T09:57:46;18.00;99.40
8539;DHT22;4307;53.868;11.680;2023-05-07T10:00:15;18.00;99.10
8539;DHT22;4307;53.868;11.680;2023-05-07T10:02:44;18.00;99.10
8539;DHT22;4307;53.868;11.680;2023-05-07T10:05:15;18.20;98.90
8539;DHT22;4307;53.868;11.680;2023-05-07T10:07:41;18.30;98.60
8539;DHT22;4307;53.868;11.680;2023-05-07T10:10:09;18.30;98.60
8539;DHT22;4307;53.868;11.680;2023-05-07T10:12:36;18.40;98.60
8539;DHT22;4307;53.868;11.680;2023-05-07T10:15:06;18.40;97.90
8539;DHT22;4307;53.868;11.680;2023-05-07T10:17:35;18.20;97.50
8539;DHT22;4307;53.868;11.680;2023-05-07T10:20:02;17.90;96.50
8539;DHT22;4307;53.868;11.680;2023-05-07T10:22:33;17.70;96.90
8539;DHT22;4307;53.868;11.680;2023-05-07T10:25:06;17.60;97.30
8539;DHT22;4307;53.868;11.680;2023-05-07T10:27:33;17.50;97.80
8539;DHT22;4307;53.868;11.680;2023-05-07T10:30:05;17.40;97.30
8539;DHT22;4307;53.868;11.680;2023-05-07T10:32:40;17.20;97.50
8539;DHT22;4307;53.868;11.680;2023-05-07T10:35:13;17.20;97.30
8539;DHT22;4307;53.868;11.680;2023-05-07T10:37:40;17.20;97.40
8539;DHT22;4307;53.868;11.680;2023-05-07T10:40:09;17.30;97.60
8539;DHT22;4307;53.868;11.680;2023-05-07T10:42:36;17.30;97.30
8539;DHT22;4307;53.868;11.680;2023-05-07T10:45:12;17.20;97.10
8539;DHT22;4307;53.868;11.680;2023-05-07T10:48:10;17.20;97.70
8539;DHT22;4307;53.868;11.680;2023-05-07T10:50:38;17.40;97.80
8539;DHT22;4307;53.868;11.680;2023-05-07T10:53:24;17.50;97.70
8539;DHT22;4307;53.868;11.680;2023-05-07T11:02:08;17.60;97.50
8539;DHT22;4307;53.868;11.680;2023-05-07T11:04:37;17.60;97.20
8539;DHT22;4307;53.868;11.680;2023-05-07T11:07:23;17.60;97.20
8539;DHT22;4307;53.868;11.680;2023-05-07T11:10:01;17.70;97.50
8539;DHT22;4307;53.868;11.680;2023-05-07T11:12:53;17.90;97.50
8539;DHT22;4307;53.868;11.680;2023-05-07T11:15:40;18.00;97.10
8539;DHT22;4307;53.868;11.680;2023-05-07T11:18:07;18.00;97.50
8539;DHT22;4307;53.868;11.680;2023-05-07T11:20:55;17.90;97.20
8539;DHT22;4307;53.868;11.680;2023-05-07T11:26:45;17.80;97.40
8539;DHT22;4307;53.868;11.680;2023-05-07T11:29:12;17.90;97.40
8539;DHT22;4307;53.868;11.680;2023-05-07T11:31:40;17.90;96.50
8539;DHT22;4307;53.868;11.680;2023-05-07T11:34:07;17.80;96.50
8539;DHT22;4307;53.868;11.680;2023-05-07T11:36:37;17.80;96.80
8539;DHT22;4307;53.868;11.680;2023-05-07T11:39:23;17.80;96.40
8539;DHT22;4307;53.868;11.680;2023-05-07T11:41:50;17.90;96.40
8539;DHT22;4307;53.868;11.680;2023-05-07T11:44:16;18.00;96.50
8539;DHT22;4307;53.868;11.680;2023-05-07T11:46:44;18.20;96.20
8539;DHT22;4307;53.868;11.680;2023-05-07T11:49:10;18.20;95.90
8539;DHT22;4307;53.868;11.680;2023-05-07T11:51:39;18.20;95.50
8539;DHT22;4307;53.868;11.680;2023-05-07T11:54:06;18.30;95.80
8539;DHT22;4307;53.868;11.680;2023-05-07T11:56:36;18.50;95.60
8539;DHT22;4307;53.868;11.680;2023-05-07T11:59:03;18.50;94.90
8539;DHT22;4307;53.868;11.680;2023-05-07T12:01:30;18.40;94.50
8539;DHT22;4307;53.868;11.680;2023-05-07T12:03:57;18.30;94.70
8539;DHT22;4307;53.868;11.680;2023-05-07T12:06:24;18.60;95.20
8539;DHT22;4307;53.868;11.680;2023-05-07T12:08:53;19.00;94.70
8539;DHT22;4307;53.868;11.680;2023-05-07T12:11:23;19.40;94.70
8539;DHT22;4307;53.868;11.680;2023-05-07T12:13:50;19.80;94.10
8539;DHT22;4307;53.868;11.680;2023-05-07T12:16:17;19.90;93.70
8539;DHT22;4307;53.868;11.680;2023-05-07T12:18:44;20.00;93.70
8539;DHT22;4307;53.868;11.680;2023-05-07T12:21:11;20.30;93.40
8539;DHT22;4307;53.868;11.680;2023-05-07T12:23:38;20.70;92.80
8539;DHT22;4307;53.868;11.680;2023-05-07T12:26:06;20.90;92.50
8539;DHT22;4307;53.868;11.680;2023-05-07T12:28:38;20.90;91.60
8539;DHT22;4307;53.868;11.680;2023-05-07T12:31:05;20.60;91.50
8539;DHT22;4307;53.868;11.680;2023-05-07T12:33:33;20.20;91.30
8539;DHT22;4307;53.868;11.680;2023-05-07T12:36:04;20.40;91.70
8539;DHT22;4307;53.868;11.680;2023-05-07T12:38:36;20.40;91.60
8539;DHT22;4307;53.868;11.680;2023-05-07T12:41:03;20.40;90.80
8539;DHT22;4307;53.868;11.680;2023-05-07T12:43:31;20.50;90.90
8539;DHT22;4307;53.868;11.680;2023-05-07T12:46:00;20.50;90.40
8539;DHT22;4307;53.868;11.680;2023-05-07T12:48:27;20.30;90.40
8539;DHT22;4307;53.868;11.680;2023-05-07T12:50:55;20.50;90.50
8539;DHT22;4307;53.868;11.680;2023-05-07T12:53:23;20.50;90.20
8539;DHT22;4307;53.868;11.680;2023-05-07T12:55:52;20.30;89.30
8539;DHT22;4307;53.868;11.680;2023-05-07T12:58:20;20.20;90.00
8539;DHT22;4307;53.868;11.680;2023-05-07T13:00:49;20.20;89.90
8539;DHT22;4307;53.868;11.680;2023-05-07T13:03:24;20.60;89.50
8539;DHT22;4307;53.868;11.680;2023-05-07T13:05:51;20.80;88.30
8539;DHT22;4307;53.868;11.680;2023-05-07T13:08:26;20.50;87.30
8539;DHT22;4307;53.868;11.680;2023-05-07T13:10:53;20.20;87.80
8539;DHT22;4307;53.868;11.680;2023-05-07T13:13:19;20.00;88.40
8539;DHT22;4307;53.868;11.680;2023-05-07T13:15:46;20.00;88.70
8539;DHT22;4307;53.868;11.680;2023-05-07T13:18:14;20.30;87.20
8539;DHT22;4307;53.868;11.680;2023-05-07T13:20:41;20.70;86.00
8539;DHT22;4307;53.868;11.680;2023-05-07T13:23:07;20.50;85.90
8539;DHT22;4307;53.868;11.680;2023-05-07T13:25:34;20.50;86.50
8539;DHT22;4307;53.868;11.680;2023-05-07T13:28:01;20.50;85.90
8539;DHT22;4307;53.868;11.680;2023-05-07T13:30:28;20.30;85.40
8539;DHT22;4307;53.868;11.680;2023-05-07T13:32:55;20.00;85.00
8539;DHT22;4307;53.868;11.680;2023-05-07T13:35:23;19.80;84.70
8539;DHT22;4307;53.868;11.680;2023-05-07T13:37:50;19.60;84.70
8539;DHT22;4307;53.868;11.680;2023-05-07T13:40:17;19.40;84.20
8539;DHT22;4307;53.868;11.680;2023-05-07T13:42:44;19.20;84.00
8539;DHT22;4307;53.868;11.680;2023-05-07T13:45:11;19.00;84.60
8539;DHT22;4307;53.868;11.680;2023-05-07T13:47:39;18.80;85.00
8539;DHT22;4307;53.868;11.680;2023-05-07T13:50:07;18.70;85.50
8539;DHT22;4307;53.868;11.680;2023-05-07T13:52:35;18.60;85.90
8539;DHT22;4307;53.868;11.680;2023-05-07T13:55:02;18.70;86.20
8539;DHT22;4307;53.868;11.680;2023-05-07T13:57:28;18.70;86.10
8539;DHT22;4307;53.868;11.680;2023-05-07T13:59:55;18.80;86.20
8539;DHT22;4307;53.868;11.680;2023-05-07T14:02:22;18.80;85.80
8539;DHT22;4307;53.868;11.680;2023-05-07T14:04:48;18.70;85.70
8539;DHT22;4307;53.868;11.680;2023-05-07T14:07:15;18.70;85.70
8539;DHT22;4307;53.868;11.680;2023-05-07T14:09:43;18.60;83.80
8539;DHT22;4307;53.868;11.680;2023-05-07T14:12:10;18.30;84.10
8539;DHT22;4307;53.868;11.680;2023-05-07T14:14:37;18.20;84.60
8539;DHT22;4307;53.868;11.680;2023-05-07T14:17:04;18.20;85.80
8539;DHT22;4307;53.868;11.680;2023-05-07T14:19:30;18.40;86.00
8539;DHT22;4307;53.868;11.680;2023-05-07T14:21:57;18.40;85.40
8539;DHT22;4307;53.868;11.680;2023-05-07T14:24:24;18.50;85.80
8539;DHT22;4307;53.868;11.680;2023-05-07T14:26:52;18.60;85.80
8539;DHT22;4307;53.868;11.680;2023-05-07T14:29:19;18.70;86.00
8539;DHT22;4307;53.868;11.680;2023-05-07T14:31:45;18.70;85.80
8539;DHT22;4307;53.868;11.680;2023-05-07T14:34:12;18.80;85.50
8539;DHT22;4307;53.868;11.680;2023-05-07T14:36:39;18.60;84.40
8539;DHT22;4307;53.868;11.680;2023-05-07T14:39:05;18.50;83.90
8539;DHT22;4307;53.868;11.680;2023-05-07T14:41:32;18.40;83.90
8539;DHT22;4307;53.868;11.680;2023-05-07T14:44:00;18.30;83.80
8539;DHT22;4307;53.868;11.680;2023-05-07T14:46:29;18.20;84.70
8539;DHT22;4307;53.868;11.680;2023-05-07T14:48:56;18.30;85.70
8539;DHT22;4307;53.868;11.680;2023-05-07T14:51:22;18.40;86.00
8539;DHT22;4307;53.868;11.680;2023-05-07T14:53:50;18.50;85.70
8539;DHT22;4307;53.868;11.680;2023-05-07T14:56:17;18.40;85.40
8539;DHT22;4307;53.868;11.680;2023-05-07T14:58:45;18.40;85.50
8539;DHT22;4307;53.868;11.680;2023-05-07T15:01:14;18.40;84.80
8539;DHT22;4307;53.868;11.680;2023-05-07T15:03:40;18.40;84.60
8539;DHT22;4307;53.868;11.680;2023-05-07T15:06:07;18.30;84.70
8539;DHT22;4307;53.868;11.680;2023-05-07T15:08:34;18.20;83.90
8539;DHT22;4307;53.868;11.680;2023-05-07T15:11:01;18.10;83.60
8539;DHT22;4307;53.868;11.680;2023-05-07T15:13:27;18.00;84.10
8539;DHT22;4307;53.868;11.680;2023-05-07T15:15:54;18.00;84.70
8539;DHT22;4307;53.868;11.680;2023-05-07T15:18:22;18.00;84.80
8539;DHT22;4307;53.868;11.680;2023-05-07T15:20:49;18.00;84.70
8539;DHT22;4307;53.868;11.680;2023-05-07T15:23:16;18.10;84.70
8539;DHT22;4307;53.868;11.680;2023-05-07T15:25:42;18.10;85.00
8539;DHT22;4307;53.868;11.680;2023-05-07T15:28:09;18.10;85.60
8539;DHT22;4307;53.868;11.680;2023-05-07T15:30:36;18.20;86.20
8539;DHT22;4307;53.868;11.680;2023-05-07T15:33:02;18.30;86.20
8539;DHT22;4307;53.868;11.680;2023-05-07T15:35:30;18.20;85.60
8539;DHT22;4307;53.868;11.680;2023-05-07T15:37:57;18.20;86.10
8539;DHT22;4307;53.868;11.680;2023-05-07T15:40:24;18.20;86.40
8539;DHT22;4307;53.868;11.680;2023-05-07T15:42:54;18.30;86.20
8539;DHT22;4307;53.868;11.680;2023-05-07T15:45:21;18.40;86.20
8539;DHT22;4307;53.868;11.680;2023-05-07T15:47:48;18.40;85.60
8539;DHT22;4307;53.868;11.680;2023-05-07T15:50:14;18.40;85.00
8539;DHT22;4307;53.868;11.680;2023-05-07T15:52:42;18.30;85.50
8539;DHT22;4307;53.868;11.680;2023-05-07T15:55:11;18.20;85.80
8539;DHT22;4307;53.868;11.680;2023-05-07T15:57:38;18.20;85.70
8539;DHT22;4307;53.868;11.680;2023-05-07T16:00:06;18.10;85.60
8539;DHT22;4307;53.868;11.680;2023-05-07T16:02:37;18.10;86.20
8539;DHT22;4307;53.868;11.680;2023-05-07T16:05:05;18.10;86.40